sensor_id;sensor_type;location;lat;lon;timestamp;P1;durP1;ratioP1;P2;durP2;ratioP2
41653;SDS011;68687;52.030;7.110;2023-05-18T00:01:23;13.70;;;5.57;;
41653;SDS011;68687;52.030;7.110;2023-05-18T00:03:48;11.85;;;4.93;;
41653;SDS011;68687;52.030;7.110;2023-05-18T00:06:13;11.27;;;4.70;;
41653;SDS011;68687;52.030;7.110;2023-05-18T00:08:39;13.20;;;5.45;;
41653;SDS011;68687;52.030;7.110;2023-05-18T00:11:05;10.93;;;5.68;;
41653;SDS011;68687;52.030;7.110;2023-05-18T00:13:33;9.02;;;5.45;;
41653;SDS011;68687;52.030;7.110;2023-05-18T00:15:58;17.45;;;6.70;;
41653;SDS011;68687;52.030;7.110;2023-05-18T00:18:30;12.32;;;5.20;;
41653;SDS011;68687;52.030;7.110;2023-05-18T00:20:55;13.48;;;5.65;;
41653;SDS011;68687;52.030;7.110;2023-05-18T00:23:27;11.88;;;5.25;;
41653;SDS011;68687;52.030;7.110;2023-05-18T00:25:57;14.50;;;5.57;;
41653;SDS011;68687;52.030;7.110;2023-05-18T00:28:23;12.80;;;5.65;;
41653;SDS011;68687;52.030;7.110;2023-05-18T00:30:49;14.35;;;5.40;;
41653;SDS011;68687;52.030;7.110;2023-05-18T00:33:17;6.78;;;4.85;;
41653;SDS011;68687;52.030;7.110;2023-05-18T00:35:43;11.38;;;4.90;;
41653;SDS011;68687;52.030;7.110;2023-05-18T00:38:08;8.75;;;4.68;;
41653;SDS011;68687;52.030;7.110;2023-05-18T00:40:36;12.32;;;4.93;;
41653;SDS011;68687;52.030;7.110;2023-05-18T00:43:04;13.07;;;5.30;;
41653;SDS011;68687;52.030;7.110;2023-05-18T00:45:30;12.80;;;4.93;;
41653;SDS011;68687;52.030;7.110;2023-05-18T00:47:55;14.35;;;5.05;;
41653;SDS011;68687;52.030;7.110;2023-05-18T00:50:20;13.45;;;4.75;;
41653;SDS011;68687;52.030;7.110;2023-05-18T00:52:46;11.15;;;5.22;;
41653;SDS011;68687;52.030;7.110;2023-05-18T00:55:14;16.85;;;5.55;;
41653;SDS011;68687;52.030;7.110;2023-05-18T00:57:39;11.73;;;4.78;;
41653;SDS011;68687;52.030;7.110;2023-05-18T01:00:08;9.07;;;4.88;;
41653;SDS011;68687;52.030;7.110;2023-05-18T01:02:35;15.68;;;5.07;;
41653;SDS011;68687;52.030;7.110;2023-05-18T01:05:06;10.45;;;4.80;;
41653;SDS011;68687;52.030;7.110;2023-05-18T01:07:31;18.45;;;5.47;;
41653;SDS011;68687;52.030;7.110;2023-05-18T01:09:57;14.13;;;4.70;;
41653;SDS011;68687;52.030;7.110;2023-05-18T01:12:36;10.23;;;5.10;;
41653;SDS011;68687;52.030;7.110;2023-05-18T01:15:08;18.98;;;5.40;;
41653;SDS011;68687;52.030;7.110;2023-05-18T01:17:56;13.90;;;4.90;;
41653;SDS011;68687;52.030;7.110;2023-05-18T01:28:23;9.73;;;4.53;;
41653;SDS011;68687;52.030;7.110;2023-05-18T01:30:53;15.35;;;5.28;;
41653;SDS011;68687;52.030;7.110;2023-05-18T01:33:19;10.65;;;4.30;;
41653;SDS011;68687;52.030;7.110;2023-05-18T01:35:45;11.13;;;5.00;;
41653;SDS011;68687;52.030;7.110;2023-05-18T01:38:24;13.13;;;5.35;;
41653;SDS011;68687;52.030;7.110;2023-05-18T01:43:41;10.60;;;5.20;;
41653;SDS011;68687;52.030;7.110;2023-05-18T01:48:55;13.38;;;5.20;;
41653;SDS011;68687;52.030;7.110;2023-05-18T01:51:25;19.30;;;5.05;;
41653;SDS011;68687;52.030;7.110;2023-05-18T01:53:58;9.75;;;5.03;;
41653;SDS011;68687;52.030;7.110;2023-05-18T01:56:26;17.30;;;5.53;;
41653;SDS011;68687;52.030;7.110;2023-05-18T01:58:53;15.85;;;4.93;;
41653;SDS011;68687;52.030;7.110;2023-05-18T02:01:19;10.43;;;4.80;;
41653;SDS011;68687;52.030;7.110;2023-05-18T02:03:46;12.85;;;5.22;;
41653;SDS011;68687;52.030;7.110;2023-05-18T02:06:24;16.58;;;6.07;;
41653;SDS011;68687;52.030;7.110;2023-05-18T02:08:52;17.52;;;6.53;;
41653;SDS011;68687;52.030;7.110;2023-05-18T02:11:21;11.95;;;4.70;;
41653;SDS011;68687;52.030;7.110;2023-05-18T02:13:46;16.08;;;5.32;;
41653;SDS011;68687;52.030;7.110;2023-05-18T02:16:12;11.70;;;5.15;;
41653;SDS011;68687;52.030;7.110;2023-05-18T02:18:37;12.90;;;5.90;;
41653;SDS011;68687;52.030;7.110;2023-05-18T02:21:03;9.55;;;5.35;;
41653;SDS011;68687;52.030;7.110;2023-05-18T02:23:29;11.02;;;5.38;;
41653;SDS011;68687;52.030;7.110;2023-05-18T02:25:55;12.50;;;5.97;;
41653;SDS011;68687;52.030;7.110;2023-05-18T02:28:20;9.27;;;5.45;;
41653;SDS011;68687;52.030;7.110;2023-05-18T02:30:52;10.02;;;5.88;;
41653;SDS011;68687;52.030;7.110;2023-05-18T02:33:17;18.65;;;5.65;;
41653;SDS011;68687;52.030;7.110;2023-05-18T02:35:43;12.32;;;5.45;;
41653;SDS011;68687;52.030;7.110;2023-05-18T02:38:09;14.90;;;5.72;;
41653;SDS011;68687;52.030;7.110;2023-05-18T02:40:34;16.83;;;5.85;;
41653;SDS011;68687;52.030;7.110;2023-05-18T02:43:00;14.65;;;6.32;;
41653;SDS011;68687;52.030;7.110;2023-05-18T02:45:25;15.27;;;5.32;;
41653;SDS011;68687;52.030;7.110;2023-05-18T02:47:50;13.93;;;6.13;;
41653;SDS011;68687;52.030;7.110;2023-05-18T02:50:15;15.80;;;6.05;;
41653;SDS011;68687;52.030;7.110;2023-05-18T02:52:41;12.20;;;6.00;;
41653;SDS011;68687;52.030;7.110;2023-05-18T02:55:06;13.02;;;5.70;;
41653;SDS011;68687;52.030;7.110;2023-05-18T02:57:31;9.95;;;5.82;;
41653;SDS011;68687;52.030;7.110;2023-05-18T02:59:57;13.38;;;6.30;;
41653;SDS011;68687;52.030;7.110;2023-05-18T03:02:23;16.08;;;5.97;;
41653;SDS011;68687;52.030;7.110;2023-05-18T03:04:48;16.42;;;6.97;;
41653;SDS011;68687;52.030;7.110;2023-05-18T03:07:18;9.55;;;5.65;;
41653;SDS011;68687;52.030;7.110;2023-05-18T03:09:44;11.25;;;6.22;;
41653;SDS011;68687;52.030;7.110;2023-05-18T03:12:10;14.82;;;6.85;;
41653;SDS011;68687;52.030;7.110;2023-05-18T03:14:35;14.70;;;6.35;;
41653;SDS011;68687;52.030;7.110;2023-05-18T03:17:00;13.63;;;6.75;;
41653;SDS011;68687;52.030;7.110;2023-05-18T03:19:29;22.70;;;7.03;;
41653;SDS011;68687;52.030;7.110;2023-05-18T03:21:59;11.90;;;6.13;;
41653;SDS011;68687;52.030;7.110;2023-05-18T03:24:27;12.25;;;7.28;;
41653;SDS011;68687;52.030;7.110;2023-05-18T03:26:54;11.90;;;7.22;;
41653;SDS011;68687;52.030;7.110;2023-05-18T03:29:21;18.08;;;6.78;;
41653;SDS011;68687;52.030;7.110;2023-05-18T03:31:49;14.98;;;6.43;;
41653;SDS011;68687;52.030;7.110;2023-05-18T03:34:18;12.65;;;6.22;;
41653;SDS011;68687;52.030;7.110;2023-05-18T03:36:43;14.13;;;6.20;;
41653;SDS011;68687;52.030;7.110;2023-05-18T03:39:11;16.38;;;6.50;;
41653;SDS011;68687;52.030;7.110;2023-05-18T03:41:36;18.90;;;7.93;;
41653;SDS011;68687;52.030;7.110;2023-05-18T03:44:05;17.92;;;6.22;;
41653;SDS011;68687;52.030;7.110;2023-05-18T03:46:33;11.23;;;5.90;;
41653;SDS011;68687;52.030;7.110;2023-05-18T03:49:02;12.80;;;6.00;;
41653;SDS011;68687;52.030;7.110;2023-05-18T03:51:29;13.57;;;6.18;;
41653;SDS011;68687;52.030;7.110;2023-05-18T03:53:58;10.68;;;6.25;;
41653;SDS011;68687;52.030;7.110;2023-05-18T03:56:23;11.85;;;5.72;;
41653;SDS011;68687;52.030;7.110;2023-05-18T03:58:48;17.60;;;6.40;;
41653;SDS011;68687;52.030;7.110;2023-05-18T04:01:15;14.07;;;5.97;;
41653;SDS011;68687;52.030;7.110;2023-05-18T04:03:45;10.68;;;5.53;;
41653;SDS011;68687;52.030;7.110;2023-05-18T04:06:11;11.63;;;6.38;;
41653;SDS011;68687;52.030;7.110;2023-05-18T04:08:36;11.30;;;6.07;;
41653;SDS011;68687;52.030;7.110;2023-05-18T04:11:01;17.13;;;5.95;;
41653;SDS011;68687;52.030;7.110;2023-05-18T04:13:33;14.48;;;6.13;;
41653;SDS011;68687;52.030;7.110;2023-05-18T04:16:01;13.60;;;6.13;;
41653;SDS011;68687;52.030;7.110;2023-05-18T04:18:30;10.10;;;5.45;;
41653;SDS011;68687;52.030;7.110;2023-05-18T04:20:56;12.13;;;6.35;;
41653;SDS011;68687;52.030;7.110;2023-05-18T04:23:24;14.93;;;6.22;;
41653;SDS011;68687;52.030;7.110;2023-05-18T04:25:52;12.40;;;6.72;;
41653;SDS011;68687;52.030;7.110;2023-05-18T04:28:18;17.67;;;6.55;;
41653;SDS011;68687;52.030;7.110;2023-05-18T04:30:46;15.68;;;6.10;;
41653;SDS011;68687;52.030;7.110;2023-05-18T04:33:11;17.70;;;5.47;;
41653;SDS011;68687;52.030;7.110;2023-05-18T04:35:40;11.52;;;6.68;;
41653;SDS011;68687;52.030;7.110;2023-05-18T04:38:08;21.08;;;6.05;;
41653;SDS011;68687;52.030;7.110;2023-05-18T04:40:34;9.93;;;5.43;;
41653;SDS011;68687;52.030;7.110;2023-05-18T04:43:01;9.23;;;5.88;;
41653;SDS011;68687;52.030;7.110;2023-05-18T04:45:28;14.25;;;6.55;;
41653;SDS011;68687;52.030;7.110;2023-05-18T04:47:53;19.70;;;6.38;;
41653;SDS011;68687;52.030;7.110;2023-05-18T04:50:25;17.08;;;6.28;;
41653;SDS011;68687;52.030;7.110;2023-05-18T04:52:52;12.50;;;5.28;;
41653;SDS011;68687;52.030;7.110;2023-05-18T04:55:21;16.85;;;5.65;;
41653;SDS011;68687;52.030;7.110;2023-05-18T04:57:49;12.45;;;5.80;;
41653;SDS011;68687;52.030;7.110;2023-05-18T05:00:21;12.65;;;5.85;;
41653;SDS011;68687;52.030;7.110;2023-05-18T05:02:48;12.23;;;5.80;;
41653;SDS011;68687;52.030;7.110;2023-05-18T05:05:14;14.30;;;5.97;;
41653;SDS011;68687;52.030;7.110;2023-05-18T05:07:43;14.65;;;6.68;;
41653;SDS011;68687;52.030;7.110;2023-05-18T05:10:09;13.05;;;6.75;;
41653;SDS011;68687;52.030;7.110;2023-05-18T05:12:35;13.45;;;5.43;;
41653;SDS011;68687;52.030;7.110;2023-05-18T05:15:01;15.63;;;6.05;;
41653;SDS011;68687;52.030;7.110;2023-05-18T05:17:27;9.57;;;5.75;;
41653;SDS011;68687;52.030;7.110;2023-05-18T05:19:52;15.23;;;5.78;;
41653;SDS011;68687;52.030;7.110;2023-05-18T05:22:17;17.60;;;6.13;;
41653;SDS011;68687;52.030;7.110;2023-05-18T05:24:43;16.42;;;5.90;;
41653;SDS011;68687;52.030;7.110;2023-05-18T05:27:09;12.15;;;5.28;;
41653;SDS011;68687;52.030;7.110;2023-05-18T05:29:34;10.82;;;5.35;;
41653;SDS011;68687;52.030;7.110;2023-05-18T05:31:59;17.35;;;5.95;;
41653;SDS011;68687;52.030;7.110;2023-05-18T05:34:25;14.90;;;5.57;;
41653;SDS011;68687;52.030;7.110;2023-05-18T05:36:50;11.93;;;6.18;;
41653;SDS011;68687;52.030;7.110;2023-05-18T05:39:15;17.63;;;5.88;;
41653;SDS011;68687;52.030;7.110;2023-05-18T05:41:40;11.57;;;5.22;;
41653;SDS011;68687;52.030;7.110;2023-05-18T05:44:06;22.15;;;7.93;;
41653;SDS011;68687;52.030;7.110;2023-05-18T05:46:31;12.55;;;5.40;;
41653;SDS011;68687;52.030;7.110;2023-05-18T05:48:56;16.77;;;5.07;;
41653;SDS011;68687;52.030;7.110;2023-05-18T05:51:22;12.75;;;5.30;;
41653;SDS011;68687;52.030;7.110;2023-05-18T05:53:50;18.25;;;5.20;;
41653;SDS011;68687;52.030;7.110;2023-05-18T05:56:15;16.95;;;5.03;;
41653;SDS011;68687;52.030;7.110;2023-05-18T05:58:40;16.58;;;5.32;;
41653;SDS011;68687;52.030;7.110;2023-05-18T06:01:06;19.27;;;4.97;;
41653;SDS011;68687;52.030;7.110;2023-05-18T06:03:32;14.15;;;5.45;;
41653;SDS011;68687;52.030;7.110;2023-05-18T06:05:58;11.10;;;5.13;;
41653;SDS011;68687;52.030;7.110;2023-05-18T06:08:23;17.15;;;5.72;;
41653;SDS011;68687;52.030;7.110;2023-05-18T06:10:48;14.75;;;5.13;;
41653;SDS011;68687;52.030;7.110;2023-05-18T06:13:14;16.17;;;5.32;;
41653;SDS011;68687;52.030;7.110;2023-05-18T06:15:40;20.42;;;5.90;;
41653;SDS011;68687;52.030;7.110;2023-05-18T06:18:05;25.48;;;7.60;;
41653;SDS011;68687;52.030;7.110;2023-05-18T06:20:31;14.55;;;5.45;;
41653;SDS011;68687;52.030;7.110;2023-05-18T06:22:56;12.05;;;4.93;;
41653;SDS011;68687;52.030;7.110;2023-05-18T06:25:21;10.57;;;4.93;;
41653;SDS011;68687;52.030;7.110;2023-05-18T06:27:47;13.65;;;5.50;;
41653;SDS011;68687;52.030;7.110;2023-05-18T06:30:12;12.82;;;5.32;;
41653;SDS011;68687;52.030;7.110;2023-05-18T06:32:38;13.75;;;5.20;;
41653;SDS011;68687;52.030;7.110;2023-05-18T06:35:03;14.35;;;4.95;;
41653;SDS011;68687;52.030;7.110;2023-05-18T06:37:30;26.25;;;5.70;;
41653;SDS011;68687;52.030;7.110;2023-05-18T06:39:59;14.15;;;6.38;;
41653;SDS011;68687;52.030;7.110;2023-05-18T06:42:30;14.38;;;5.68;;
41653;SDS011;68687;52.030;7.110;2023-05-18T06:44:56;15.38;;;5.57;;
41653;SDS011;68687;52.030;7.110;2023-05-18T06:47:21;15.43;;;6.13;;
41653;SDS011;68687;52.030;7.110;2023-05-18T06:49:47;13.25;;;5.75;;
41653;SDS011;68687;52.030;7.110;2023-05-18T06:52:12;13.80;;;6.13;;
41653;SDS011;68687;52.030;7.110;2023-05-18T06:54:37;17.23;;;6.47;;
41653;SDS011;68687;52.030;7.110;2023-05-18T06:57:03;12.15;;;5.78;;
41653;SDS011;68687;52.030;7.110;2023-05-18T06:59:28;19.63;;;6.40;;
41653;SDS011;68687;52.030;7.110;2023-05-18T07:01:56;12.95;;;5.93;;
41653;SDS011;68687;52.030;7.110;2023-05-18T07:04:21;20.00;;;5.40;;
41653;SDS011;68687;52.030;7.110;2023-05-18T07:06:47;14.07;;;7.10;;
41653;SDS011;68687;52.030;7.110;2023-05-18T07:09:18;12.93;;;5.38;;
41653;SDS011;68687;52.030;7.110;2023-05-18T07:11:44;19.40;;;5.93;;
41653;SDS011;68687;52.030;7.110;2023-05-18T07:14:09;15.45;;;6.35;;
41653;SDS011;68687;52.030;7.110;2023-05-18T07:16:34;22.42;;;5.10;;
41653;SDS011;68687;52.030;7.110;2023-05-18T07:19:00;16.05;;;5.63;;
41653;SDS011;68687;52.030;7.110;2023-05-18T07:21:25;15.10;;;5.07;;
41653;SDS011;68687;52.030;7.110;2023-05-18T07:23:53;19.10;;;6.25;;
41653;SDS011;68687;52.030;7.110;2023-05-18T07:26:19;15.95;;;6.90;;
41653;SDS011;68687;52.030;7.110;2023-05-18T07:28:46;15.63;;;5.60;;
41653;SDS011;68687;52.030;7.110;2023-05-18T07:31:12;16.95;;;6.00;;
41653;SDS011;68687;52.030;7.110;2023-05-18T07:33:40;20.27;;;6.68;;
41653;SDS011;68687;52.030;7.110;2023-05-18T07:36:05;12.88;;;6.10;;
41653;SDS011;68687;52.030;7.110;2023-05-18T07:38:31;13.52;;;6.40;;
41653;SDS011;68687;52.030;7.110;2023-05-18T07:40:56;15.13;;;6.40;;
41653;SDS011;68687;52.030;7.110;2023-05-18T07:43:23;17.80;;;6.72;;
41653;SDS011;68687;52.030;7.110;2023-05-18T07:45:49;15.18;;;6.10;;
41653;SDS011;68687;52.030;7.110;2023-05-18T07:48:14;16.45;;;5.97;;
41653;SDS011;68687;52.030;7.110;2023-05-18T07:50:39;17.98;;;6.65;;
41653;SDS011;68687;52.030;7.110;2023-05-18T07:53:11;14.10;;;6.50;;
41653;SDS011;68687;52.030;7.110;2023-05-18T07:55:39;12.43;;;6.72;;
41653;SDS011;68687;52.030;7.110;2023-05-18T07:58:06;18.85;;;6.60;;
41653;SDS011;68687;52.030;7.110;2023-05-18T08:00:34;12.80;;;6.25;;
41653;SDS011;68687;52.030;7.110;2023-05-18T08:03:00;17.70;;;7.03;;
41653;SDS011;68687;52.030;7.110;2023-05-18T08:05:25;18.75;;;6.57;;
41653;SDS011;68687;52.030;7.110;2023-05-18T08:07:58;18.40;;;6.90;;
41653;SDS011;68687;52.030;7.110;2023-05-18T08:10:23;11.15;;;5.40;;
41653;SDS011;68687;52.030;7.110;2023-05-18T08:12:48;13.85;;;5.93;;
41653;SDS011;68687;52.030;7.110;2023-05-18T08:15:14;24.42;;;7.03;;
41653;SDS011;68687;52.030;7.110;2023-05-18T08:17:45;13.48;;;6.20;;
41653;SDS011;68687;52.030;7.110;2023-05-18T08:20:11;16.48;;;6.32;;
41653;SDS011;68687;52.030;7.110;2023-05-18T08:22:37;13.55;;;6.25;;
41653;SDS011;68687;52.030;7.110;2023-05-18T08:25:02;16.55;;;6.00;;
41653;SDS011;68687;52.030;7.110;2023-05-18T08:27:31;15.00;;;5.85;;
41653;SDS011;68687;52.030;7.110;2023-05-18T08:29:59;16.35;;;6.28;;
41653;SDS011;68687;52.030;7.110;2023-05-18T08:32:30;15.98;;;6.80;;
41653;SDS011;68687;52.030;7.110;2023-05-18T08:34:59;14.13;;;5.75;;
41653;SDS011;68687;52.030;7.110;2023-05-18T08:37:24;14.77;;;6.43;;
41653;SDS011;68687;52.030;7.110;2023-05-18T08:39:53;17.48;;;6.68;;
41653;SDS011;68687;52.030;7.110;2023-05-18T08:42:21;9.82;;;5.07;;
41653;SDS011;68687;52.030;7.110;2023-05-18T08:47:30;19.55;;;6.47;;
41653;SDS011;68687;52.030;7.110;2023-05-18T08:50:04;19.65;;;6.10;;
41653;SDS011;68687;52.030;7.110;2023-05-18T08:52:33;11.05;;;5.85;;
41653;SDS011;68687;52.030;7.110;2023-05-18T08:54:59;11.15;;;5.13;;
41653;SDS011;68687;52.030;7.110;2023-05-18T08:57:30;16.27;;;5.28;;
41653;SDS011;68687;52.030;7.110;2023-05-18T08:59:58;13.05;;;6.32;;
41653;SDS011;68687;52.030;7.110;2023-05-18T09:02:26;18.73;;;5.55;;
41653;SDS011;68687;52.030;7.110;2023-05-18T09:04:51;18.08;;;5.70;;
41653;SDS011;68687;52.030;7.110;2023-05-18T09:07:18;21.95;;;6.53;;
41653;SDS011;68687;52.030;7.110;2023-05-18T09:09:48;12.70;;;6.28;;
41653;SDS011;68687;52.030;7.110;2023-05-18T09:12:14;10.85;;;4.97;;
41653;SDS011;68687;52.030;7.110;2023-05-18T09:14:40;14.55;;;6.07;;
41653;SDS011;68687;52.030;7.110;2023-05-18T09:17:10;12.80;;;6.20;;
41653;SDS011;68687;52.030;7.110;2023-05-18T09:19:35;12.68;;;6.18;;
41653;SDS011;68687;52.030;7.110;2023-05-18T09:22:00;8.45;;;4.88;;
41653;SDS011;68687;52.030;7.110;2023-05-18T09:24:26;18.20;;;5.45;;
41653;SDS011;68687;52.030;7.110;2023-05-18T09:26:51;12.45;;;5.97;;
41653;SDS011;68687;52.030;7.110;2023-05-18T09:29:20;19.60;;;6.22;;
41653;SDS011;68687;52.030;7.110;2023-05-18T09:31:48;19.38;;;5.80;;
41653;SDS011;68687;52.030;7.110;2023-05-18T09:34:14;16.77;;;5.80;;
41653;SDS011;68687;52.030;7.110;2023-05-18T09:36:39;7.70;;;5.15;;
41653;SDS011;68687;52.030;7.110;2023-05-18T09:39:09;10.40;;;5.88;;
41653;SDS011;68687;52.030;7.110;2023-05-18T09:41:38;10.35;;;5.53;;
41653;SDS011;68687;52.030;7.110;2023-05-18T09:44:04;14.00;;;5.57;;
41653;SDS011;68687;52.030;7.110;2023-05-18T09:46:36;10.65;;;5.47;;
41653;SDS011;68687;52.030;7.110;2023-05-18T09:49:02;16.73;;;5.90;;
41653;SDS011;68687;52.030;7.110;2023-05-18T09:51:29;12.63;;;5.95;;
41653;SDS011;68687;52.030;7.110;2023-05-18T09:53:58;13.48;;;5.47;;
41653;SDS011;68687;52.030;7.110;2023-05-18T09:56:24;9.38;;;4.63;;
41653;SDS011;68687;52.030;7.110;2023-05-18T09:58:50;10.13;;;5.68;;
41653;SDS011;68687;52.030;7.110;2023-05-18T10:01:16;13.45;;;6.07;;
41653;SDS011;68687;52.030;7.110;2023-05-18T10:03:44;15.57;;;5.35;;
41653;SDS011;68687;52.030;7.110;2023-05-18T10:06:12;16.80;;;5.90;;
41653;SDS011;68687;52.030;7.110;2023-05-18T10:08:37;15.80;;;6.30;;
41653;SDS011;68687;52.030;7.110;2023-05-18T10:11:04;14.98;;;6.53;;
41653;SDS011;68687;52.030;7.110;2023-05-18T10:13:36;17.33;;;7.13;;
41653;SDS011;68687;52.030;7.110;2023-05-18T10:16:02;11.57;;;6.20;;
41653;SDS011;68687;52.030;7.110;2023-05-18T10:18:32;17.00;;;6.32;;
41653;SDS011;68687;52.030;7.110;2023-05-18T10:21:03;10.95;;;6.22;;
41653;SDS011;68687;52.030;7.110;2023-05-18T10:23:30;11.05;;;6.05;;
41653;SDS011;68687;52.030;7.110;2023-05-18T10:25:57;11.52;;;6.63;;
41653;SDS011;68687;52.030;7.110;2023-05-18T10:28:26;12.82;;;6.50;;
41653;SDS011;68687;52.030;7.110;2023-05-18T10:31:05;14.43;;;5.78;;
41653;SDS011;68687;52.030;7.110;2023-05-18T10:33:32;13.13;;;5.75;;
41653;SDS011;68687;52.030;7.110;2023-05-18T10:36:03;15.88;;;6.90;;
41653;SDS011;68687;52.030;7.110;2023-05-18T10:38:36;11.05;;;6.22;;
41653;SDS011;68687;52.030;7.110;2023-05-18T10:41:04;12.82;;;5.78;;
41653;SDS011;68687;52.030;7.110;2023-05-18T10:43:30;10.45;;;6.18;;
41653;SDS011;68687;52.030;7.110;2023-05-18T10:46:00;14.68;;;6.93;;
41653;SDS011;68687;52.030;7.110;2023-05-18T10:48:26;9.80;;;6.22;;
41653;SDS011;68687;52.030;7.110;2023-05-18T10:50:56;12.45;;;5.93;;
41653;SDS011;68687;52.030;7.110;2023-05-18T10:53:23;17.67;;;5.57;;
41653;SDS011;68687;52.030;7.110;2023-05-18T10:55:56;14.98;;;6.82;;
41653;SDS011;68687;52.030;7.110;2023-05-18T10:58:24;13.32;;;6.00;;
41653;SDS011;68687;52.030;7.110;2023-05-18T11:00:55;12.63;;;5.90;;
41653;SDS011;68687;52.030;7.110;2023-05-18T11:03:22;7.97;;;5.50;;
41653;SDS011;68687;52.030;7.110;2023-05-18T11:06:03;13.60;;;6.18;;
41653;SDS011;68687;52.030;7.110;2023-05-18T11:08:34;10.63;;;6.03;;
41653;SDS011;68687;52.030;7.110;2023-05-18T11:11:07;9.63;;;5.93;;
41653;SDS011;68687;52.030;7.110;2023-05-18T11:13:37;14.90;;;5.60;;
41653;SDS011;68687;52.030;7.110;2023-05-18T11:16:11;13.43;;;6.22;;
41653;SDS011;68687;52.030;7.110;2023-05-18T11:18:38;15.25;;;6.63;;
41653;SDS011;68687;52.030;7.110;2023-05-18T11:21:16;17.77;;;6.85;;
41653;SDS011;68687;52.030;7.110;2023-05-18T11:24:04;13.05;;;6.70;;
41653;SDS011;68687;52.030;7.110;2023-05-18T11:26:41;12.07;;;6.72;;
41653;SDS011;68687;52.030;7.110;2023-05-18T11:29:17;13.00;;;7.05;;
41653;SDS011;68687;52.030;7.110;2023-05-18T11:31:51;10.50;;;6.57;;
41653;SDS011;68687;52.030;7.110;2023-05-18T11:34:34;12.60;;;6.90;;
41653;SDS011;68687;52.030;7.110;2023-05-18T11:37:00;11.02;;;7.07;;
41653;SDS011;68687;52.030;7.110;2023-05-18T11:39:25;12.43;;;6.88;;
41653;SDS011;68687;52.030;7.110;2023-05-18T11:41:58;13.82;;;6.75;;
41653;SDS011;68687;52.030;7.110;2023-05-18T11:44:29;12.45;;;6.65;;
41653;SDS011;68687;52.030;7.110;2023-05-18T11:49:36;13.65;;;6.57;;
41653;SDS011;68687;52.030;7.110;2023-05-18T11:54:57;17.40;;;7.70;;
41653;SDS011;68687;52.030;7.110;2023-05-18T11:57:24;16.33;;;7.88;;
41653;SDS011;68687;52.030;7.110;2023-05-18T11:59:56;12.93;;;8.23;;
41653;SDS011;68687;52.030;7.110;2023-05-18T12:02:23;19.40;;;8.07;;
41653;SDS011;68687;52.030;7.110;2023-05-18T12:04:53;14.45;;;7.45;;
41653;SDS011;68687;52.030;7.110;2023-05-18T12:07:21;13.52;;;8.88;;
41653;SDS011;68687;52.030;7.110;2023-05-18T12:09:48;14.38;;;8.43;;
41653;SDS011;68687;52.030;7.110;2023-05-18T12:12:15;17.92;;;8.13;;
41653;SDS011;68687;52.030;7.110;2023-05-18T12:14:44;14.50;;;8.80;;
41653;SDS011;68687;52.030;7.110;2023-05-18T12:17:16;19.90;;;9.35;;
41653;SDS011;68687;52.030;7.110;2023-05-18T12:19:48;16.50;;;8.15;;
41653;SDS011;68687;52.030;7.110;2023-05-18T12:22:14;19.70;;;8.18;;
41653;SDS011;68687;52.030;7.110;2023-05-18T12:24:43;15.15;;;8.13;;
41653;SDS011;68687;52.030;7.110;2023-05-18T12:27:09;18.02;;;8.50;;
41653;SDS011;68687;52.030;7.110;2023-05-18T12:29:39;19.90;;;8.02;;
41653;SDS011;68687;52.030;7.110;2023-05-18T12:32:09;18.13;;;9.25;;
41653;SDS011;68687;52.030;7.110;2023-05-18T12:34:36;14.27;;;8.50;;
41653;SDS011;68687;52.030;7.110;2023-05-18T12:37:03;12.95;;;7.85;;
41653;SDS011;68687;52.030;7.110;2023-05-18T12:39:30;16.45;;;7.50;;
41653;SDS011;68687;52.030;7.110;2023-05-18T12:44:46;16.50;;;8.73;;
41653;SDS011;68687;52.030;7.110;2023-05-18T12:47:17;14.73;;;8.18;;
41653;SDS011;68687;52.030;7.110;2023-05-18T12:49:46;20.15;;;9.60;;
41653;SDS011;68687;52.030;7.110;2023-05-18T12:52:14;14.23;;;9.18;;
41653;SDS011;68687;52.030;7.110;2023-05-18T12:54:50;14.27;;;8.32;;
41653;SDS011;68687;52.030;7.110;2023-05-18T12:57:22;10.25;;;6.82;;
41653;SDS011;68687;52.030;7.110;2023-05-18T12:59:53;13.25;;;6.72;;
41653;SDS011;68687;52.030;7.110;2023-05-18T13:05:00;17.70;;;7.13;;
41653;SDS011;68687;52.030;7.110;2023-05-18T13:07:36;12.43;;;7.47;;
41653;SDS011;68687;52.030;7.110;2023-05-18T13:10:13;15.40;;;6.28;;
41653;SDS011;68687;52.030;7.110;2023-05-18T13:12:47;14.70;;;6.07;;
41653;SDS011;68687;52.030;7.110;2023-05-18T13:17:53;11.63;;;5.60;;
41653;SDS011;68687;52.030;7.110;2023-05-18T13:20:20;13.63;;;6.03;;
41653;SDS011;68687;52.030;7.110;2023-05-18T13:22:52;8.05;;;5.20;;
41653;SDS011;68687;52.030;7.110;2023-05-18T13:25:22;10.50;;;4.97;;
41653;SDS011;68687;52.030;7.110;2023-05-18T13:27:48;11.20;;;5.30;;
41653;SDS011;68687;52.030;7.110;2023-05-18T13:30:15;10.15;;;4.70;;
41653;SDS011;68687;52.030;7.110;2023-05-18T13:32:41;10.23;;;4.40;;
41653;SDS011;68687;52.030;7.110;2023-05-18T13:35:06;13.05;;;5.25;;
41653;SDS011;68687;52.030;7.110;2023-05-18T13:37:34;12.90;;;5.00;;
41653;SDS011;68687;52.030;7.110;2023-05-18T13:40:03;10.40;;;4.35;;
41653;SDS011;68687;52.030;7.110;2023-05-18T13:42:28;9.45;;;4.78;;
41653;SDS011;68687;52.030;7.110;2023-05-18T13:45:00;9.32;;;4.53;;
41653;SDS011;68687;52.030;7.110;2023-05-18T13:47:26;11.40;;;4.47;;
41653;SDS011;68687;52.030;7.110;2023-05-18T13:49:54;11.30;;;4.30;;
41653;SDS011;68687;52.030;7.110;2023-05-18T13:52:19;11.30;;;4.40;;
41653;SDS011;68687;52.030;7.110;2023-05-18T13:54:44;14.73;;;4.07;;
41653;SDS011;68687;52.030;7.110;2023-05-18T13:57:13;13.02;;;4.80;;
41653;SDS011;68687;52.030;7.110;2023-05-18T13:59:38;13.02;;;4.43;;
41653;SDS011;68687;52.030;7.110;2023-05-18T14:02:04;9.57;;;4.40;;
41653;SDS011;68687;52.030;7.110;2023-05-18T14:04:29;14.02;;;4.85;;
41653;SDS011;68687;52.030;7.110;2023-05-18T14:06:55;10.10;;;4.60;;
41653;SDS011;68687;52.030;7.110;2023-05-18T14:09:22;13.70;;;4.47;;
41653;SDS011;68687;52.030;7.110;2023-05-18T14:11:48;13.43;;;4.65;;
41653;SDS011;68687;52.030;7.110;2023-05-18T14:14:17;9.38;;;3.80;;
41653;SDS011;68687;52.030;7.110;2023-05-18T14:16:42;12.70;;;4.32;;
41653;SDS011;68687;52.030;7.110;2023-05-18T14:19:07;9.02;;;3.78;;
41653;SDS011;68687;52.030;7.110;2023-05-18T14:21:32;9.23;;;3.90;;
41653;SDS011;68687;52.030;7.110;2023-05-18T14:23:58;8.25;;;3.95;;
41653;SDS011;68687;52.030;7.110;2023-05-18T14:26:27;12.90;;;5.57;;
41653;SDS011;68687;52.030;7.110;2023-05-18T14:28:53;9.60;;;4.45;;
41653;SDS011;68687;52.030;7.110;2023-05-18T14:31:18;9.05;;;4.40;;
41653;SDS011;68687;52.030;7.110;2023-05-18T14:33:43;12.85;;;4.13;;
41653;SDS011;68687;52.030;7.110;2023-05-18T14:36:08;8.90;;;4.55;;
41653;SDS011;68687;52.030;7.110;2023-05-18T14:38:34;12.88;;;4.88;;
41653;SDS011;68687;52.030;7.110;2023-05-18T14:40:59;7.70;;;3.45;;
41653;SDS011;68687;52.030;7.110;2023-05-18T14:43:24;10.23;;;4.97;;
41653;SDS011;68687;52.030;7.110;2023-05-18T14:45:50;7.07;;;4.03;;
41653;SDS011;68687;52.030;7.110;2023-05-18T14:48:15;8.10;;;3.67;;
41653;SDS011;68687;52.030;7.110;2023-05-18T14:50:40;13.18;;;3.97;;
41653;SDS011;68687;52.030;7.110;2023-05-18T14:53:06;12.07;;;4.38;;
41653;SDS011;68687;52.030;7.110;2023-05-18T14:55:31;7.95;;;3.92;;
41653;SDS011;68687;52.030;7.110;2023-05-18T14:57:56;7.25;;;3.53;;
41653;SDS011;68687;52.030;7.110;2023-05-18T15:00:22;9.75;;;4.32;;
41653;SDS011;68687;52.030;7.110;2023-05-18T15:02:47;15.43;;;4.32;;
41653;SDS011;68687;52.030;7.110;2023-05-18T15:05:13;9.98;;;5.03;;
41653;SDS011;68687;52.030;7.110;2023-05-18T15:07:38;12.63;;;4.25;;